createdAt,value
2022-09-04T00:01:16.170Z,18.60
2022-09-04T00:04:14.245Z,18.70
2022-09-04T00:07:26.793Z,18.70
2022-09-04T00:10:25.187Z,18.70
2022-09-04T00:12:57.461Z,18.60
2022-09-04T00:15:35.497Z,18.60
2022-09-04T00:18:32.750Z,18.60
2022-09-04T00:21:40.815Z,18.50
2022-09-04T00:24:17.799Z,18.50
2022-09-04T00:27:27.058Z,18.60
2022-09-04T00:30:15.709Z,18.60
2022-09-04T00:33:21.219Z,18.50
2022-09-04T00:35:56.194Z,18.50
2022-09-04T00:38:57.494Z,18.50
2022-09-04T00:41:31.390Z,18.50
2022-09-04T00:44:19.655Z,18.50
2022-09-04T00:47:11.669Z,18.50
2022-09-04T00:50:12.864Z,18.50
2022-09-04T00:53:22.196Z,18.50
2022-09-04T00:56:17.857Z,18.50
2022-09-04T00:58:48.618Z,18.50
2022-09-04T01:01:27.831Z,18.40
2022-09-04T01:04:23.620Z,18.50
2022-09-04T01:07:10.292Z,18.40
2022-09-04T01:09:46.715Z,18.40
2022-09-04T01:12:39.997Z,18.40
2022-09-04T01:15:45.024Z,18.40
2022-09-04T01:18:17.164Z,18.30
2022-09-04T01:21:09.361Z,18.30
2022-09-04T01:24:19.838Z,18.30
2022-09-04T01:27:15.717Z,18.20
2022-09-04T01:30:08.521Z,18.20
2022-09-04T01:33:15.878Z,18.30
2022-09-04T01:36:06.005Z,18.30
2022-09-04T01:38:56.499Z,18.20
2022-09-04T01:41:59.757Z,18.10
2022-09-04T01:44:29.882Z,18.10
2022-09-04T01:47:50.744Z,18.00
2022-09-04T01:50:23.742Z,17.90
2022-09-04T01:53:35.597Z,18.00
2022-09-04T01:56:21.794Z,17.90
2022-09-04T01:59:05.926Z,17.90
2022-09-04T02:02:04.762Z,17.90
2022-09-04T02:04:54.689Z,17.80
2022-09-04T02:07:31.790Z,17.80
2022-09-04T02:10:34.290Z,17.80
2022-09-04T02:13:45.618Z,17.80
2022-09-04T02:17:02.506Z,17.80
2022-09-04T02:20:13.810Z,17.80
2022-09-04T02:23:20.942Z,17.70
2022-09-04T02:26:27.122Z,17.70
2022-09-04T02:29:26.196Z,17.70
2022-09-04T02:31:59.951Z,17.70
2022-09-04T02:34:55.754Z,17.70
2022-09-04T02:37:31.249Z,17.70
2022-09-04T02:40:56.071Z,17.70
2022-09-04T02:43:49.245Z,17.70
2022-09-04T02:47:04.155Z,17.60
2022-09-04T02:50:04.772Z,17.50
2022-09-04T02:52:38.311Z,17.50
2022-09-04T02:55:21.330Z,17.60
2022-09-04T02:58:21.845Z,17.60
2022-09-04T03:01:17.423Z,17.60
2022-09-04T03:04:11.982Z,17.60
2022-09-04T03:07:01.915Z,17.50
2022-09-04T03:09:46.496Z,17.50
2022-09-04T03:12:33.591Z,17.50
2022-09-04T03:15:36.574Z,17.50
2022-09-04T03:18:25.996Z,17.50
2022-09-04T03:20:56.761Z,17.40
2022-09-04T03:23:47.955Z,17.40
2022-09-04T03:27:00.308Z,17.50
2022-09-04T03:29:58.581Z,17.50
2022-09-04T03:33:11.118Z,17.50
2022-09-04T03:36:14.434Z,17.50
2022-09-04T03:38:57.266Z,17.50
2022-09-04T03:41:55.505Z,17.50
2022-09-04T03:44:54.798Z,17.50
2022-09-04T03:47:57.762Z,17.40
2022-09-04T03:50:58.905Z,17.40
2022-09-04T03:54:02.090Z,17.40
2022-09-04T03:57:02.257Z,17.40
2022-09-04T03:59:47.890Z,17.40
2022-09-04T04:03:07.357Z,17.40
2022-09-04T04:05:45.020Z,17.40
2022-09-04T04:08:51.789Z,17.40
2022-09-04T04:11:58.513Z,17.30
2022-09-04T04:15:09.877Z,17.40
2022-09-04T04:17:59.168Z,17.30
2022-09-04T04:20:48.411Z,17.30
2022-09-04T04:23:44.431Z,17.30
2022-09-04T04:26:31.404Z,17.30
2022-09-04T04:29:34.610Z,17.30
2022-09-04T04:32:24.658Z,17.20
2022-09-04T04:35:31.705Z,17.10
2022-09-04T04:38:37.541Z,17.10
2022-09-04T04:41:29.104Z,17.10
2022-09-04T04:44:17.382Z,17.10
2022-09-04T04:46:59.426Z,17.10
2022-09-04T04:49:51.341Z,17.10
2022-09-04T04:52:33.652Z,17.00
2022-09-04T04:55:31.511Z,17.10
2022-09-04T04:58:28.746Z,17.10
2022-09-04T05:01:18.112Z,17.10
2022-09-04T05:04:06.927Z,17.10
2022-09-04T05:06:50.995Z,17.10
2022-09-04T05:09:45.024Z,17.10
2022-09-04T05:12:51.510Z,17.10
2022-09-04T05:16:09.059Z,17.20
2022-09-04T05:19:04.042Z,17.20
2022-09-04T05:21:49.185Z,17.20
2022-09-04T05:24:57.445Z,17.20
2022-09-04T05:28:12.057Z,17.10
2022-09-04T05:30:59.295Z,17.10
2022-09-04T05:33:40.273Z,17.20
2022-09-04T05:36:39.670Z,17.20
2022-09-04T05:39:40.844Z,17.20
2022-09-04T05:43:17.085Z,17.20
2022-09-04T05:46:06.831Z,17.20
2022-09-04T05:48:45.371Z,17.20
2022-09-04T05:51:44.523Z,17.30
2022-09-04T05:54:52.749Z,17.30
2022-09-04T05:57:45.626Z,17.30
2022-09-04T06:00:16.475Z,17.30
2022-09-04T06:03:15.875Z,17.30
2022-09-04T06:06:24.406Z,17.30
2022-09-04T06:08:51.800Z,17.30
2022-09-04T06:11:41.015Z,17.30
2022-09-04T06:14:36.662Z,17.40
2022-09-04T06:17:06.469Z,17.40
2022-09-04T06:19:52.197Z,17.40
2022-09-04T06:22:32.533Z,17.50
2022-09-04T06:25:57.437Z,17.50
2022-09-04T06:28:47.316Z,17.60
2022-09-04T06:31:25.417Z,17.60
2022-09-04T06:34:28.018Z,17.70
2022-09-04T06:37:19.666Z,17.80
2022-09-04T06:40:35.862Z,17.80
2022-09-04T06:43:33.164Z,17.90
2022-09-04T06:46:27.269Z,17.90
2022-09-04T06:49:19.732Z,18.00
2022-09-04T06:52:16.283Z,17.90
2022-09-04T06:55:05.051Z,17.90
2022-09-04T06:58:11.784Z,18.00
2022-09-04T07:01:09.582Z,18.00
2022-09-04T07:03:47.499Z,18.30
2022-09-04T07:06:24.310Z,18.30
2022-09-04T07:09:27.828Z,18.30
2022-09-04T07:12:19.873Z,18.30
2022-09-04T07:15:37.933Z,18.50
2022-09-04T07:18:17.589Z,18.90
2022-09-04T07:21:20.855Z,19.30
2022-09-04T07:24:36.033Z,19.40
2022-09-04T07:27:37.028Z,19.70
2022-09-04T07:30:14.734Z,19.70
2022-09-04T07:33:07.439Z,19.70
2022-09-04T07:35:52.831Z,19.70
2022-09-04T07:38:58.414Z,19.60
2022-09-04T07:41:42.317Z,19.50
2022-09-04T07:44:43.639Z,19.60
2022-09-04T07:47:39.963Z,19.70
2022-09-04T07:50:23.733Z,19.90
2022-09-04T07:53:30.513Z,20.20
2022-09-04T07:56:37.704Z,20.20
2022-09-04T07:59:28.421Z,20.40
2022-09-04T08:02:33.778Z,20.70
2022-09-04T08:05:13.820Z,20.90
2022-09-04T08:07:51.654Z,21.00
2022-09-04T08:11:04.356Z,21.50
2022-09-04T08:14:11.285Z,21.60
2022-09-04T08:16:41.931Z,21.50
2022-09-04T08:19:48.154Z,21.60
2022-09-04T08:22:33.833Z,21.50
2022-09-04T08:25:22.342Z,21.40
2022-09-04T08:28:21.238Z,21.40
2022-09-04T08:31:21.655Z,21.30
2022-09-04T08:34:10.927Z,21.40
2022-09-04T08:36:50.369Z,21.40
2022-09-04T08:39:37.265Z,21.40
2022-09-04T08:42:43.840Z,21.40
2022-09-04T08:45:42.395Z,21.40
2022-09-04T08:48:51.709Z,21.40
2022-09-04T08:51:50.680Z,21.40
2022-09-04T08:54:37.607Z,21.30
2022-09-04T08:57:32.609Z,21.30
2022-09-04T09:00:23.045Z,21.40
2022-09-04T09:03:29.942Z,21.20
2022-09-04T09:06:37.615Z,21.40
2022-09-04T09:09:42.754Z,21.40
2022-09-04T09:12:41.061Z,21.30
2022-09-04T09:15:42.454Z,21.40
2022-09-04T09:18:28.783Z,21.30
2022-09-04T09:21:44.907Z,21.30
2022-09-04T09:24:39.234Z,21.30
2022-09-04T09:27:48.723Z,21.30
2022-09-04T09:30:23.235Z,21.30
2022-09-04T09:32:53.981Z,21.30
2022-09-04T09:35:44.946Z,21.20
2022-09-04T09:38:41.513Z,21.20
2022-09-04T09:41:34.547Z,21.20
2022-09-04T09:44:28.968Z,21.20
2022-09-04T09:47:27.571Z,21.40
2022-09-04T09:50:25.569Z,21.50
2022-09-04T09:53:24.872Z,21.40
2022-09-04T09:56:15.360Z,21.70
2022-09-04T09:59:25.818Z,21.90
2022-09-04T10:02:15.279Z,22.00
2022-09-04T10:05:22.895Z,22.10
2022-09-04T10:08:19.190Z,22.30
2022-09-04T10:11:52.736Z,22.30
2022-09-04T10:14:50.574Z,22.30
2022-09-04T10:17:44.041Z,22.00
2022-09-04T10:20:55.728Z,21.70
2022-09-04T10:23:55.638Z,21.90
2022-09-04T10:27:02.160Z,22.20
2022-09-04T10:29:59.780Z,22.40
2022-09-04T10:32:33.238Z,22.60
2022-09-04T10:35:27.915Z,22.50
2022-09-04T10:38:23.653Z,22.50
2022-09-04T10:41:24.534Z,22.50
2022-09-04T10:44:23.683Z,22.50
2022-09-04T10:47:32.027Z,22.40
2022-09-04T10:50:38.147Z,22.30
2022-09-04T10:53:49.252Z,22.30
2022-09-04T10:56:43.808Z,22.30
2022-09-04T10:59:32.007Z,22.30
2022-09-04T11:02:27.138Z,22.40
2022-09-04T11:05:46.438Z,22.30
2022-09-04T11:08:55.385Z,22.40
2022-09-04T11:12:02.455Z,22.30
2022-09-04T11:14:53.287Z,22.40
2022-09-04T11:17:32.711Z,22.30
2022-09-04T11:20:52.605Z,22.40
2022-09-04T11:24:02.669Z,22.40
2022-09-04T11:26:48.511Z,22.50
2022-09-04T11:29:21.625Z,22.50
2022-09-04T11:32:22.983Z,22.60
2022-09-04T11:35:32.296Z,22.60
2022-09-04T11:38:07.650Z,22.60
2022-09-04T11:40:55.553Z,22.80
2022-09-04T11:43:37.829Z,22.90
2022-09-04T11:46:34.564Z,23.00
2022-09-04T11:49:52.393Z,23.00
2022-09-04T11:53:01.346Z,23.00
2022-09-04T11:55:58.531Z,23.00
2022-09-04T11:59:07.796Z,23.10
2022-09-04T12:02:12.864Z,23.20
2022-09-04T12:05:20.155Z,23.10
2022-09-04T12:08:26.237Z,23.20
2022-09-04T12:11:33.553Z,23.20
2022-09-04T12:14:44.510Z,23.20
2022-09-04T12:17:50.606Z,23.30
2022-09-04T12:20:34.686Z,23.20
2022-09-04T12:23:27.230Z,23.20
2022-09-04T12:26:33.205Z,23.10
2022-09-04T12:29:21.761Z,23.00
2022-09-04T12:32:22.435Z,23.00
2022-09-04T12:35:21.722Z,23.00
2022-09-04T12:38:16.341Z,23.00
2022-09-04T12:41:06.285Z,23.00
2022-09-04T12:44:28.901Z,22.90
2022-09-04T12:47:25.016Z,22.80
2022-09-04T12:50:24.104Z,22.80
2022-09-04T12:53:27.615Z,22.80
2022-09-04T12:56:26.325Z,22.80
2022-09-04T12:59:40.356Z,22.80
2022-09-04T13:02:29.833Z,22.90
2022-09-04T13:05:20.830Z,23.00
2022-09-04T13:08:26.390Z,22.90
2022-09-04T13:11:27.022Z,23.00
2022-09-04T13:14:31.787Z,23.10
2022-09-04T13:18:01.934Z,23.00
2022-09-04T13:20:47.656Z,23.00
2022-09-04T13:23:46.617Z,23.10
2022-09-04T13:26:34.064Z,23.00
2022-09-04T13:29:42.919Z,23.00
2022-09-04T13:32:52.174Z,22.80
2022-09-04T13:35:36.405Z,22.60
2022-09-04T13:38:19.598Z,22.60
2022-09-04T13:41:25.131Z,22.50
2022-09-04T13:44:18.587Z,22.50
2022-09-04T13:47:32.750Z,22.50
2022-09-04T13:50:08.615Z,22.50
2022-09-04T13:52:45.717Z,22.50
2022-09-04T13:55:20.001Z,22.70
2022-09-04T13:58:14.063Z,23.00
2022-09-04T14:00:53.008Z,23.20
2022-09-04T14:03:39.183Z,23.40
2022-09-04T14:06:14.935Z,23.50
2022-09-04T14:08:44.265Z,23.40
2022-09-04T14:11:34.149Z,23.40
2022-09-04T14:14:13.647Z,23.40
2022-09-04T14:16:43.965Z,23.50
2022-09-04T14:19:31.257Z,23.60
2022-09-04T14:22:16.487Z,23.20
2022-09-04T14:24:55.927Z,22.80
2022-09-04T14:27:33.608Z,22.90
2022-09-04T14:30:14.732Z,23.00
2022-09-04T14:33:08.812Z,23.20
2022-09-04T14:36:11.520Z,23.50
2022-09-04T14:38:54.466Z,23.60
2022-09-04T14:41:43.066Z,23.70
2022-09-04T14:44:41.829Z,23.80
2022-09-04T14:47:32.697Z,23.80
2022-09-04T14:50:02.295Z,23.50
2022-09-04T14:52:41.526Z,23.40
2022-09-04T14:55:18.994Z,23.40
2022-09-04T14:58:11.788Z,23.40
2022-09-04T15:01:24.594Z,23.30
2022-09-04T15:04:27.604Z,23.30
2022-09-04T15:07:11.338Z,23.40
2022-09-04T15:09:45.799Z,23.50
2022-09-04T15:12:36.274Z,23.60
2022-09-04T15:15:18.540Z,23.50
2022-09-04T15:18:22.877Z,23.50
2022-09-04T15:21:21.402Z,23.50
2022-09-04T15:24:00.463Z,23.40
2022-09-04T15:26:41.427Z,23.40
2022-09-04T15:29:54.493Z,23.40
2022-09-04T15:32:28.535Z,23.40
2022-09-04T15:35:25.352Z,23.40
2022-09-04T15:38:20.958Z,23.30
2022-09-04T15:41:19.401Z,23.30
2022-09-04T15:43:55.997Z,23.20
2022-09-04T15:47:02.368Z,23.20
2022-09-04T15:49:55.657Z,23.20
2022-09-04T15:52:56.557Z,23.30
2022-09-04T15:55:33.238Z,23.30
2022-09-04T15:58:30.675Z,23.30
2022-09-04T16:01:17.418Z,23.20
2022-09-04T16:04:28.318Z,23.20
2022-09-04T16:07:35.174Z,23.20
2022-09-04T16:10:42.309Z,23.20
2022-09-04T16:13:35.128Z,23.20
2022-09-04T16:16:19.946Z,23.20
2022-09-04T16:19:28.808Z,23.10
2022-09-04T16:22:24.144Z,23.10
2022-09-04T16:25:13.381Z,23.10
2022-09-04T16:27:54.561Z,23.00
2022-09-04T16:30:47.462Z,23.00
2022-09-04T16:33:43.157Z,23.00
2022-09-04T16:36:42.740Z,23.00
2022-09-04T16:39:29.422Z,23.00
2022-09-04T16:42:22.930Z,22.90
2022-09-04T16:45:29.261Z,22.90
2022-09-04T16:48:35.039Z,22.70
2022-09-04T16:51:42.025Z,22.70
2022-09-04T16:54:39.999Z,22.60
2022-09-04T16:57:20.147Z,22.50
2022-09-04T16:59:53.720Z,22.50
2022-09-04T17:03:03.912Z,22.40
2022-09-04T17:05:43.204Z,22.40
2022-09-04T17:08:34.796Z,22.30
2022-09-04T17:11:27.762Z,22.20
2022-09-04T17:14:44.150Z,22.10
2022-09-04T17:17:30.627Z,22.20
2022-09-04T17:20:12.079Z,22.10
2022-09-04T17:29:00.663Z,22.00
2022-09-04T17:29:16.012Z,21.80
2022-09-04T17:29:54.432Z,21.80
2022-09-04T17:34:18.148Z,21.70
2022-09-04T17:40:35.866Z,21.70
2022-09-04T17:40:36.002Z,21.70
2022-09-04T17:41:48.620Z,21.60
2022-09-04T17:44:51.390Z,21.50
2022-09-04T17:47:45.597Z,21.50
2022-09-04T17:50:22.353Z,21.50
2022-09-04T17:53:05.606Z,21.40
2022-09-04T17:55:50.120Z,21.40
2022-09-04T17:58:59.573Z,21.30
2022-09-04T18:01:33.941Z,21.30
2022-09-04T18:04:35.556Z,21.30
2022-09-04T18:08:08.060Z,21.20
2022-09-04T18:10:55.450Z,21.20
2022-09-04T18:13:47.077Z,21.20
2022-09-04T18:17:11.288Z,21.20
2022-09-04T18:20:04.451Z,21.20
2022-09-04T18:23:07.531Z,21.20
2022-09-04T18:25:51.352Z,21.10
2022-09-04T18:29:07.500Z,21.10
2022-09-04T18:37:15.971Z,21.10
2022-09-04T18:37:18.387Z,21.10
2022-09-04T18:39:15.848Z,21.00
2022-09-04T18:50:15.759Z,21.00
2022-09-04T18:50:32.967Z,20.90
2022-09-04T18:50:38.910Z,20.90
2022-09-04T18:51:21.550Z,20.80
2022-09-04T18:54:16.266Z,20.80
2022-09-04T18:56:53.179Z,20.70
2022-09-04T18:59:31.665Z,20.70
2022-09-04T19:02:25.037Z,20.60
2022-09-04T19:05:03.407Z,20.60
2022-09-04T19:07:52.527Z,20.50
2022-09-04T19:10:33.050Z,20.40
2022-09-04T19:13:08.517Z,20.30
2022-09-04T19:15:55.886Z,20.20
2022-09-04T19:18:29.501Z,20.10
2022-09-04T19:21:30.089Z,20.00
2022-09-04T19:24:16.897Z,20.00
2022-09-04T19:27:38.994Z,19.90
2022-09-04T19:30:44.900Z,19.80
2022-09-04T19:33:48.496Z,19.70
2022-09-04T19:36:45.495Z,19.70
2022-09-04T19:46:00.739Z,19.60
2022-09-04T19:46:16.923Z,19.40
2022-09-04T19:46:27.742Z,19.30
2022-09-04T19:52:46.476Z,19.20
2022-09-04T19:53:32.366Z,19.10
2022-09-04T19:55:48.821Z,19.00
2022-09-04T19:58:44.038Z,18.90
2022-09-04T20:01:28.154Z,18.90
2022-09-04T20:04:30.217Z,18.80
2022-09-04T20:07:11.991Z,18.90
2022-09-04T20:09:51.281Z,18.80
2022-09-04T20:12:48.885Z,18.80
2022-09-04T20:15:31.495Z,18.80
2022-09-04T20:18:06.742Z,18.70
2022-09-04T20:20:55.627Z,18.60
2022-09-04T20:23:37.365Z,18.50
2022-09-04T20:26:46.005Z,18.40
2022-09-04T20:29:30.306Z,18.40
2022-09-04T20:32:38.379Z,18.30
2022-09-04T20:35:48.081Z,18.20
2022-09-04T20:38:44.079Z,18.10
2022-09-04T20:44:20.096Z,18.10
2022-09-04T20:52:49.680Z,18.10
2022-09-04T20:53:00.395Z,18.10
2022-09-04T20:53:39.098Z,18.00
2022-09-04T20:57:58.699Z,17.90
2022-09-04T21:03:10.821Z,17.90
2022-09-04T21:03:35.573Z,17.90
2022-09-04T21:06:42.165Z,17.90
2022-09-04T21:09:54.975Z,17.70
2022-09-04T21:13:13.815Z,17.60
2022-09-04T21:16:22.322Z,17.50
2022-09-04T21:19:29.135Z,17.60
2022-09-04T21:22:49.358Z,17.50
2022-09-04T21:25:42.506Z,17.50
2022-09-04T21:29:11.040Z,17.40
2022-09-04T21:31:58.048Z,17.30
2022-09-04T21:35:05.217Z,17.30
2022-09-04T21:37:54.521Z,17.20
2022-09-04T21:41:00.187Z,17.20
2022-09-04T21:44:24.867Z,17.10
2022-09-04T21:47:35.131Z,17.10
2022-09-04T21:50:42.850Z,17.10
2022-09-04T21:53:40.860Z,17.10
2022-09-04T22:02:25.200Z,17.00
2022-09-04T22:02:37.032Z,17.00
2022-09-04T22:03:31.710Z,17.00
2022-09-04T22:06:38.954Z,16.90
2022-09-04T22:13:31.985Z,16.90
2022-09-04T22:13:46.326Z,16.80
2022-09-04T22:16:31.115Z,16.80
2022-09-04T22:19:36.775Z,16.80
2022-09-04T22:22:35.568Z,16.70
2022-09-04T22:25:29.323Z,16.80
2022-09-04T22:28:12.098Z,16.80
2022-09-04T22:31:20.348Z,16.80
2022-09-04T22:34:27.567Z,16.70
2022-09-04T22:37:28.964Z,16.60
2022-09-04T22:40:31.606Z,16.70
2022-09-04T22:43:46.721Z,16.60
2022-09-04T22:46:57.290Z,16.50
2022-09-04T22:50:02.027Z,16.50
2022-09-04T22:53:10.712Z,16.50
2022-09-04T22:59:26.741Z,16.40
2022-09-04T23:03:07.269Z,16.40
2022-09-04T23:07:04.022Z,16.40
2022-09-04T23:13:44.115Z,16.40
2022-09-04T23:13:57.901Z,16.40
2022-09-04T23:15:58.652Z,16.40
2022-09-04T23:26:01.613Z,16.30
2022-09-04T23:26:35.159Z,16.30
2022-09-04T23:26:54.235Z,16.20
2022-09-04T23:29:23.282Z,16.30
2022-09-04T23:32:30.226Z,16.20
2022-09-04T23:35:24.530Z,16.20
2022-09-04T23:38:32.483Z,16.20
2022-09-04T23:41:26.112Z,16.10
2022-09-04T23:44:32.834Z,16.00
2022-09-04T23:47:47.766Z,16.00
2022-09-04T23:50:32.974Z,16.00
2022-09-04T23:53:43.121Z,15.90
2022-09-04T23:56:34.689Z,15.90
2022-09-04T23:59:46.697Z,15.90
